TAF and METAR

METAR for Heidrun

ENHE 181250Z 23025KT 9999 BKN025 08/05 Q1031 W///S4
Report created 18. apr 14:50
wind 25 knots from SW (230°) visibility > 10km broken clouds (~75% cover) at 2500 feet Temperature 8° with dewpoint at 5° (Humidity 81.34%) Pressure 1031 hPa

TAF for Heidrun

TAF ENHE 181100Z 1812/1821 23028KT 9999 SCT020 BKN060
Report created 18. apr 13:00

between 18. apr 14:00 - 18. apr 23:00

wind 28 knots from SW (230°) visibility > 10km scattered clouds (~50% cover) at 2000 feet broken clouds (~75% cover) at 6000 feet